sensor_id;sensor_type;location;lat;lon;timestamp;P1;durP1;ratioP1;P2;durP2;ratioP2
8540;SDS011;4308;51.294;6.590;2023-07-29T00:01:54;3.57;;;3.13;;
8540;SDS011;4308;51.294;6.590;2023-07-29T00:04:22;5.67;;;3.60;;
8540;SDS011;4308;51.294;6.590;2023-07-29T00:06:50;3.77;;;3.43;;
8540;SDS011;4308;51.294;6.590;2023-07-29T00:09:17;4.20;;;3.40;;
8540;SDS011;4308;51.294;6.590;2023-07-29T00:11:45;3.27;;;3.03;;
8540;SDS011;4308;51.294;6.590;2023-07-29T00:14:12;5.30;;;3.37;;
8540;SDS011;4308;51.294;6.590;2023-07-29T00:16:40;4.30;;;3.90;;
8540;SDS011;4308;51.294;6.590;2023-07-29T00:19:08;4.73;;;3.60;;
8540;SDS011;4308;51.294;6.590;2023-07-29T00:21:36;5.23;;;3.50;;
8540;SDS011;4308;51.294;6.590;2023-07-29T00:24:03;4.37;;;3.63;;
8540;SDS011;4308;51.294;6.590;2023-07-29T00:26:31;5.07;;;3.90;;
8540;SDS011;4308;51.294;6.590;2023-07-29T00:28:59;3.53;;;3.23;;
8540;SDS011;4308;51.294;6.590;2023-07-29T00:31:26;3.40;;;3.10;;
8540;SDS011;4308;51.294;6.590;2023-07-29T00:33:54;4.70;;;3.40;;
8540;SDS011;4308;51.294;6.590;2023-07-29T00:36:22;4.93;;;3.00;;
8540;SDS011;4308;51.294;6.590;2023-07-29T00:38:49;3.90;;;3.60;;
8540;SDS011;4308;51.294;6.590;2023-07-29T00:41:17;5.00;;;3.23;;
8540;SDS011;4308;51.294;6.590;2023-07-29T00:43:44;4.07;;;3.10;;
8540;SDS011;4308;51.294;6.590;2023-07-29T00:46:12;5.87;;;3.47;;
8540;SDS011;4308;51.294;6.590;2023-07-29T00:48:40;4.43;;;3.50;;
8540;SDS011;4308;51.294;6.590;2023-07-29T00:51:08;4.23;;;3.13;;
8540;SDS011;4308;51.294;6.590;2023-07-29T00:53:35;6.57;;;3.40;;
8540;SDS011;4308;51.294;6.590;2023-07-29T00:56:03;4.40;;;3.53;;
8540;SDS011;4308;51.294;6.590;2023-07-29T00:58:30;4.90;;;2.90;;
8540;SDS011;4308;51.294;6.590;2023-07-29T01:00:58;6.27;;;3.70;;
8540;SDS011;4308;51.294;6.590;2023-07-29T01:03:26;8.07;;;3.80;;
8540;SDS011;4308;51.294;6.590;2023-07-29T01:06:08;3.73;;;3.07;;
8540;SDS011;4308;51.294;6.590;2023-07-29T01:16:32;6.10;;;2.93;;
8540;SDS011;4308;51.294;6.590;2023-07-29T01:19:04;7.13;;;3.43;;
8540;SDS011;4308;51.294;6.590;2023-07-29T01:21:33;4.93;;;3.73;;
8540;SDS011;4308;51.294;6.590;2023-07-29T01:24:01;8.47;;;3.20;;
8540;SDS011;4308;51.294;6.590;2023-07-29T01:26:29;7.73;;;3.40;;
8540;SDS011;4308;51.294;6.590;2023-07-29T01:28:56;4.83;;;3.27;;
8540;SDS011;4308;51.294;6.590;2023-07-29T01:31:31;5.43;;;3.20;;
8540;SDS011;4308;51.294;6.590;2023-07-29T01:34:10;4.37;;;3.50;;
8540;SDS011;4308;51.294;6.590;2023-07-29T01:36:39;4.27;;;3.40;;
8540;SDS011;4308;51.294;6.590;2023-07-29T01:39:11;4.93;;;3.60;;
8540;SDS011;4308;51.294;6.590;2023-07-29T01:41:39;5.97;;;3.77;;
8540;SDS011;4308;51.294;6.590;2023-07-29T01:44:07;3.60;;;3.13;;
8540;SDS011;4308;51.294;6.590;2023-07-29T01:46:35;6.43;;;3.80;;
8540;SDS011;4308;51.294;6.590;2023-07-29T01:49:03;5.10;;;3.33;;
8540;SDS011;4308;51.294;6.590;2023-07-29T01:51:30;5.57;;;3.53;;
8540;SDS011;4308;51.294;6.590;2023-07-29T01:53:58;4.83;;;3.60;;
8540;SDS011;4308;51.294;6.590;2023-07-29T01:56:25;5.57;;;3.67;;
8540;SDS011;4308;51.294;6.590;2023-07-29T01:58:53;7.20;;;3.83;;
8540;SDS011;4308;51.294;6.590;2023-07-29T02:01:21;6.00;;;3.57;;
8540;SDS011;4308;51.294;6.590;2023-07-29T02:03:48;8.63;;;3.57;;
8540;SDS011;4308;51.294;6.590;2023-07-29T02:06:16;5.90;;;3.30;;
8540;SDS011;4308;51.294;6.590;2023-07-29T02:08:44;5.00;;;3.23;;
8540;SDS011;4308;51.294;6.590;2023-07-29T02:11:11;3.60;;;3.30;;
8540;SDS011;4308;51.294;6.590;2023-07-29T02:13:39;5.63;;;3.47;;
8540;SDS011;4308;51.294;6.590;2023-07-29T02:16:06;7.23;;;3.77;;
8540;SDS011;4308;51.294;6.590;2023-07-29T02:18:34;4.93;;;3.57;;
8540;SDS011;4308;51.294;6.590;2023-07-29T02:21:01;7.40;;;4.17;;
8540;SDS011;4308;51.294;6.590;2023-07-29T02:23:29;8.17;;;3.70;;
8540;SDS011;4308;51.294;6.590;2023-07-29T02:25:57;7.80;;;3.73;;
8540;SDS011;4308;51.294;6.590;2023-07-29T02:28:24;5.20;;;3.47;;
8540;SDS011;4308;51.294;6.590;2023-07-29T02:33:38;5.07;;;3.87;;
8540;SDS011;4308;51.294;6.590;2023-07-29T02:36:06;7.03;;;3.70;;
8540;SDS011;4308;51.294;6.590;2023-07-29T02:38:33;6.13;;;3.57;;
8540;SDS011;4308;51.294;6.590;2023-07-29T02:41:01;5.63;;;3.93;;
8540;SDS011;4308;51.294;6.590;2023-07-29T02:43:29;6.60;;;3.97;;
8540;SDS011;4308;51.294;6.590;2023-07-29T02:45:56;8.40;;;4.13;;
8540;SDS011;4308;51.294;6.590;2023-07-29T02:48:24;5.97;;;4.43;;
8540;SDS011;4308;51.294;6.590;2023-07-29T02:50:52;5.40;;;3.73;;
8540;SDS011;4308;51.294;6.590;2023-07-29T02:53:19;4.47;;;3.70;;
8540;SDS011;4308;51.294;6.590;2023-07-29T02:55:47;7.17;;;3.97;;
8540;SDS011;4308;51.294;6.590;2023-07-29T02:58:14;9.40;;;4.43;;
8540;SDS011;4308;51.294;6.590;2023-07-29T03:00:42;4.83;;;4.07;;
8540;SDS011;4308;51.294;6.590;2023-07-29T03:03:10;11.53;;;4.70;;
8540;SDS011;4308;51.294;6.590;2023-07-29T03:05:38;5.30;;;4.50;;
8540;SDS011;4308;51.294;6.590;2023-07-29T03:08:05;5.53;;;4.40;;
8540;SDS011;4308;51.294;6.590;2023-07-29T03:10:34;6.70;;;4.70;;
8540;SDS011;4308;51.294;6.590;2023-07-29T03:13:02;5.00;;;4.47;;
8540;SDS011;4308;51.294;6.590;2023-07-29T03:15:29;5.97;;;4.60;;
8540;SDS011;4308;51.294;6.590;2023-07-29T03:17:57;6.17;;;4.30;;
8540;SDS011;4308;51.294;6.590;2023-07-29T03:20:24;5.77;;;4.33;;
8540;SDS011;4308;51.294;6.590;2023-07-29T03:22:52;8.83;;;4.30;;
8540;SDS011;4308;51.294;6.590;2023-07-29T03:25:20;6.47;;;4.80;;
8540;SDS011;4308;51.294;6.590;2023-07-29T03:27:47;8.57;;;4.50;;
8540;SDS011;4308;51.294;6.590;2023-07-29T03:30:15;5.23;;;4.20;;
8540;SDS011;4308;51.294;6.590;2023-07-29T03:32:43;8.77;;;5.17;;
8540;SDS011;4308;51.294;6.590;2023-07-29T03:35:11;7.90;;;5.23;;
8540;SDS011;4308;51.294;6.590;2023-07-29T03:37:38;5.23;;;4.83;;
8540;SDS011;4308;51.294;6.590;2023-07-29T03:40:06;6.03;;;4.70;;
8540;SDS011;4308;51.294;6.590;2023-07-29T03:42:34;7.97;;;4.43;;
8540;SDS011;4308;51.294;6.590;2023-07-29T03:45:02;5.50;;;4.23;;
8540;SDS011;4308;51.294;6.590;2023-07-29T03:47:30;6.67;;;4.63;;
8540;SDS011;4308;51.294;6.590;2023-07-29T03:49:58;4.80;;;4.30;;
8540;SDS011;4308;51.294;6.590;2023-07-29T03:52:25;4.63;;;4.20;;
8540;SDS011;4308;51.294;6.590;2023-07-29T03:54:53;5.63;;;4.30;;
8540;SDS011;4308;51.294;6.590;2023-07-29T03:57:20;4.70;;;4.20;;
8540;SDS011;4308;51.294;6.590;2023-07-29T03:59:48;7.40;;;3.90;;
8540;SDS011;4308;51.294;6.590;2023-07-29T04:02:16;4.90;;;4.40;;
8540;SDS011;4308;51.294;6.590;2023-07-29T04:04:43;4.40;;;4.00;;
8540;SDS011;4308;51.294;6.590;2023-07-29T04:07:11;5.17;;;4.60;;
8540;SDS011;4308;51.294;6.590;2023-07-29T04:09:39;5.07;;;4.20;;
8540;SDS011;4308;51.294;6.590;2023-07-29T04:12:06;6.03;;;4.20;;
8540;SDS011;4308;51.294;6.590;2023-07-29T04:14:34;5.17;;;4.63;;
8540;SDS011;4308;51.294;6.590;2023-07-29T04:17:02;4.47;;;4.07;;
8540;SDS011;4308;51.294;6.590;2023-07-29T04:19:29;4.77;;;4.37;;
8540;SDS011;4308;51.294;6.590;2023-07-29T04:21:57;4.90;;;4.30;;
8540;SDS011;4308;51.294;6.590;2023-07-29T04:24:24;5.30;;;4.37;;
8540;SDS011;4308;51.294;6.590;2023-07-29T04:26:52;6.23;;;4.20;;
8540;SDS011;4308;51.294;6.590;2023-07-29T04:29:19;5.47;;;4.07;;
8540;SDS011;4308;51.294;6.590;2023-07-29T04:31:47;5.00;;;4.33;;
8540;SDS011;4308;51.294;6.590;2023-07-29T04:34:15;8.23;;;4.77;;
8540;SDS011;4308;51.294;6.590;2023-07-29T04:36:42;6.50;;;4.40;;
8540;SDS011;4308;51.294;6.590;2023-07-29T04:39:10;8.03;;;5.20;;
8540;SDS011;4308;51.294;6.590;2023-07-29T04:41:38;5.47;;;4.97;;
8540;SDS011;4308;51.294;6.590;2023-07-29T04:44:05;6.47;;;5.20;;
8540;SDS011;4308;51.294;6.590;2023-07-29T04:46:33;6.37;;;4.50;;
8540;SDS011;4308;51.294;6.590;2023-07-29T04:49:01;8.40;;;6.00;;
8540;SDS011;4308;51.294;6.590;2023-07-29T04:51:29;6.83;;;5.20;;
8540;SDS011;4308;51.294;6.590;2023-07-29T04:53:57;6.03;;;5.40;;
8540;SDS011;4308;51.294;6.590;2023-07-29T04:56:25;5.40;;;4.57;;
8540;SDS011;4308;51.294;6.590;2023-07-29T04:58:53;5.40;;;4.80;;
8540;SDS011;4308;51.294;6.590;2023-07-29T05:01:20;5.20;;;4.70;;
8540;SDS011;4308;51.294;6.590;2023-07-29T05:03:48;8.20;;;5.17;;
8540;SDS011;4308;51.294;6.590;2023-07-29T05:06:16;4.87;;;4.47;;
8540;SDS011;4308;51.294;6.590;2023-07-29T05:08:43;9.30;;;5.03;;
8540;SDS011;4308;51.294;6.590;2023-07-29T05:11:11;5.60;;;5.10;;
8540;SDS011;4308;51.294;6.590;2023-07-29T05:13:38;5.57;;;5.07;;
8540;SDS011;4308;51.294;6.590;2023-07-29T05:16:06;7.03;;;5.17;;
8540;SDS011;4308;51.294;6.590;2023-07-29T05:18:34;6.57;;;5.07;;
8540;SDS011;4308;51.294;6.590;2023-07-29T05:21:01;6.23;;;4.93;;
8540;SDS011;4308;51.294;6.590;2023-07-29T05:23:29;5.43;;;4.83;;
8540;SDS011;4308;51.294;6.590;2023-07-29T05:25:57;6.83;;;5.77;;
8540;SDS011;4308;51.294;6.590;2023-07-29T05:28:24;6.80;;;5.23;;
8540;SDS011;4308;51.294;6.590;2023-07-29T05:30:52;5.87;;;5.27;;
8540;SDS011;4308;51.294;6.590;2023-07-29T05:33:22;7.40;;;5.33;;
8540;SDS011;4308;51.294;6.590;2023-07-29T05:35:50;5.70;;;5.10;;
8540;SDS011;4308;51.294;6.590;2023-07-29T05:38:18;6.20;;;4.97;;
8540;SDS011;4308;51.294;6.590;2023-07-29T05:40:47;7.03;;;4.70;;
8540;SDS011;4308;51.294;6.590;2023-07-29T05:43:15;4.83;;;4.43;;
8540;SDS011;4308;51.294;6.590;2023-07-29T05:45:42;6.47;;;4.30;;
8540;SDS011;4308;51.294;6.590;2023-07-29T05:48:10;5.93;;;4.37;;
8540;SDS011;4308;51.294;6.590;2023-07-29T05:50:38;6.70;;;4.70;;
8540;SDS011;4308;51.294;6.590;2023-07-29T05:53:05;6.43;;;4.73;;
8540;SDS011;4308;51.294;6.590;2023-07-29T05:55:33;4.83;;;3.90;;
8540;SDS011;4308;51.294;6.590;2023-07-29T05:58:00;4.80;;;3.90;;
8540;SDS011;4308;51.294;6.590;2023-07-29T06:00:28;6.17;;;3.53;;
8540;SDS011;4308;51.294;6.590;2023-07-29T06:02:56;4.47;;;3.60;;
8540;SDS011;4308;51.294;6.590;2023-07-29T06:05:23;3.87;;;3.10;;
8540;SDS011;4308;51.294;6.590;2023-07-29T06:07:51;6.63;;;3.77;;
8540;SDS011;4308;51.294;6.590;2023-07-29T06:10:19;6.73;;;3.77;;
8540;SDS011;4308;51.294;6.590;2023-07-29T06:12:46;4.23;;;3.30;;
8540;SDS011;4308;51.294;6.590;2023-07-29T06:15:14;3.63;;;3.07;;
8540;SDS011;4308;51.294;6.590;2023-07-29T06:17:42;3.30;;;2.93;;
8540;SDS011;4308;51.294;6.590;2023-07-29T06:20:09;3.53;;;3.20;;
8540;SDS011;4308;51.294;6.590;2023-07-29T06:22:37;5.20;;;3.27;;
8540;SDS011;4308;51.294;6.590;2023-07-29T06:25:05;5.40;;;3.17;;
8540;SDS011;4308;51.294;6.590;2023-07-29T06:27:33;4.67;;;2.97;;
8540;SDS011;4308;51.294;6.590;2023-07-29T06:30:00;3.17;;;2.60;;
8540;SDS011;4308;51.294;6.590;2023-07-29T06:32:28;4.97;;;2.37;;
8540;SDS011;4308;51.294;6.590;2023-07-29T06:34:55;4.00;;;2.70;;
8540;SDS011;4308;51.294;6.590;2023-07-29T06:37:23;3.73;;;2.47;;
8540;SDS011;4308;51.294;6.590;2023-07-29T06:39:51;10.40;;;3.80;;
8540;SDS011;4308;51.294;6.590;2023-07-29T06:42:18;7.10;;;2.70;;
8540;SDS011;4308;51.294;6.590;2023-07-29T06:44:46;4.53;;;2.83;;
8540;SDS011;4308;51.294;6.590;2023-07-29T06:47:13;3.33;;;2.40;;
8540;SDS011;4308;51.294;6.590;2023-07-29T06:49:41;2.23;;;1.90;;
8540;SDS011;4308;51.294;6.590;2023-07-29T06:52:09;3.03;;;1.90;;
8540;SDS011;4308;51.294;6.590;2023-07-29T06:54:36;4.73;;;1.93;;
8540;SDS011;4308;51.294;6.590;2023-07-29T06:57:04;2.20;;;2.00;;
8540;SDS011;4308;51.294;6.590;2023-07-29T06:59:32;3.57;;;2.10;;
8540;SDS011;4308;51.294;6.590;2023-07-29T07:02:02;2.23;;;1.90;;
8540;SDS011;4308;51.294;6.590;2023-07-29T07:04:29;4.77;;;1.93;;
8540;SDS011;4308;51.294;6.590;2023-07-29T07:06:57;1.93;;;1.83;;
8540;SDS011;4308;51.294;6.590;2023-07-29T07:09:24;2.83;;;1.80;;
8540;SDS011;4308;51.294;6.590;2023-07-29T07:11:52;2.60;;;1.70;;
8540;SDS011;4308;51.294;6.590;2023-07-29T07:14:19;2.30;;;1.70;;
8540;SDS011;4308;51.294;6.590;2023-07-29T07:16:47;2.20;;;2.00;;
8540;SDS011;4308;51.294;6.590;2023-07-29T07:19:15;1.80;;;1.63;;
8540;SDS011;4308;51.294;6.590;2023-07-29T07:21:42;2.33;;;1.50;;
8540;SDS011;4308;51.294;6.590;2023-07-29T07:24:10;2.00;;;1.47;;
8540;SDS011;4308;51.294;6.590;2023-07-29T07:26:38;2.87;;;1.70;;
8540;SDS011;4308;51.294;6.590;2023-07-29T07:29:05;4.27;;;1.80;;
8540;SDS011;4308;51.294;6.590;2023-07-29T07:31:33;6.83;;;2.50;;
8540;SDS011;4308;51.294;6.590;2023-07-29T07:34:01;9.60;;;4.20;;
8540;SDS011;4308;51.294;6.590;2023-07-29T07:36:29;4.77;;;2.33;;
8540;SDS011;4308;51.294;6.590;2023-07-29T07:38:56;3.03;;;1.67;;
8540;SDS011;4308;51.294;6.590;2023-07-29T07:41:24;1.67;;;1.37;;
8540;SDS011;4308;51.294;6.590;2023-07-29T07:43:51;1.70;;;1.60;;
8540;SDS011;4308;51.294;6.590;2023-07-29T07:46:19;3.40;;;1.40;;
8540;SDS011;4308;51.294;6.590;2023-07-29T07:48:47;4.20;;;1.33;;
8540;SDS011;4308;51.294;6.590;2023-07-29T07:51:14;1.63;;;1.30;;
8540;SDS011;4308;51.294;6.590;2023-07-29T07:53:42;1.80;;;1.43;;
8540;SDS011;4308;51.294;6.590;2023-07-29T07:56:10;2.03;;;1.50;;
8540;SDS011;4308;51.294;6.590;2023-07-29T07:58:37;3.10;;;1.30;;
8540;SDS011;4308;51.294;6.590;2023-07-29T08:01:05;1.37;;;1.20;;
8540;SDS011;4308;51.294;6.590;2023-07-29T08:03:34;1.40;;;1.30;;
8540;SDS011;4308;51.294;6.590;2023-07-29T08:06:02;2.40;;;1.40;;
8540;SDS011;4308;51.294;6.590;2023-07-29T08:08:29;1.00;;;1.00;;
8540;SDS011;4308;51.294;6.590;2023-07-29T08:10:57;2.03;;;1.53;;
8540;SDS011;4308;51.294;6.590;2023-07-29T08:13:25;3.30;;;1.40;;
8540;SDS011;4308;51.294;6.590;2023-07-29T08:15:52;1.83;;;1.20;;
8540;SDS011;4308;51.294;6.590;2023-07-29T08:18:20;2.27;;;1.40;;
8540;SDS011;4308;51.294;6.590;2023-07-29T08:20:51;1.73;;;1.63;;
8540;SDS011;4308;51.294;6.590;2023-07-29T08:23:19;3.10;;;1.50;;
8540;SDS011;4308;51.294;6.590;2023-07-29T08:25:51;2.67;;;1.27;;
8540;SDS011;4308;51.294;6.590;2023-07-29T08:28:18;1.80;;;1.33;;
8540;SDS011;4308;51.294;6.590;2023-07-29T08:30:46;1.37;;;1.23;;
8540;SDS011;4308;51.294;6.590;2023-07-29T08:33:17;3.40;;;1.17;;
8540;SDS011;4308;51.294;6.590;2023-07-29T08:35:44;3.23;;;1.20;;
8540;SDS011;4308;51.294;6.590;2023-07-29T08:38:12;1.30;;;1.20;;
8540;SDS011;4308;51.294;6.590;2023-07-29T08:41:14;2.40;;;1.20;;
8540;SDS011;4308;51.294;6.590;2023-07-29T08:43:33;1.40;;;1.30;;
8540;SDS011;4308;51.294;6.590;2023-07-29T08:46:02;1.43;;;1.30;;
8540;SDS011;4308;51.294;6.590;2023-07-29T08:48:42;2.60;;;1.30;;
8540;SDS011;4308;51.294;6.590;2023-07-29T08:51:11;1.27;;;1.10;;
8540;SDS011;4308;51.294;6.590;2023-07-29T08:53:39;3.53;;;1.23;;
8540;SDS011;4308;51.294;6.590;2023-07-29T08:56:10;1.97;;;1.30;;
8540;SDS011;4308;51.294;6.590;2023-07-29T08:58:37;3.07;;;1.40;;
8540;SDS011;4308;51.294;6.590;2023-07-29T09:01:06;4.37;;;1.80;;
8540;SDS011;4308;51.294;6.590;2023-07-29T09:03:34;4.43;;;1.47;;
8540;SDS011;4308;51.294;6.590;2023-07-29T09:06:01;3.17;;;1.50;;
8540;SDS011;4308;51.294;6.590;2023-07-29T09:08:29;2.03;;;1.47;;
8540;SDS011;4308;51.294;6.590;2023-07-29T09:10:57;1.53;;;1.37;;
8540;SDS011;4308;51.294;6.590;2023-07-29T09:13:25;1.50;;;1.40;;
8540;SDS011;4308;51.294;6.590;2023-07-29T09:15:57;1.50;;;1.40;;
8540;SDS011;4308;51.294;6.590;2023-07-29T09:18:25;3.63;;;1.40;;
8540;SDS011;4308;51.294;6.590;2023-07-29T09:20:53;2.07;;;1.33;;
8540;SDS011;4308;51.294;6.590;2023-07-29T09:23:21;2.83;;;1.73;;
8540;SDS011;4308;51.294;6.590;2023-07-29T09:25:49;2.37;;;1.50;;
8540;SDS011;4308;51.294;6.590;2023-07-29T09:28:16;1.93;;;1.57;;
8540;SDS011;4308;51.294;6.590;2023-07-29T09:30:45;1.90;;;1.67;;
8540;SDS011;4308;51.294;6.590;2023-07-29T09:33:13;1.40;;;1.30;;
8540;SDS011;4308;51.294;6.590;2023-07-29T09:35:41;2.20;;;1.40;;
8540;SDS011;4308;51.294;6.590;2023-07-29T09:38:10;5.03;;;1.40;;
8540;SDS011;4308;51.294;6.590;2023-07-29T09:40:41;1.47;;;1.37;;
8540;SDS011;4308;51.294;6.590;2023-07-29T09:43:09;1.60;;;1.50;;
8540;SDS011;4308;51.294;6.590;2023-07-29T09:45:37;2.30;;;1.47;;
8540;SDS011;4308;51.294;6.590;2023-07-29T09:48:05;1.80;;;1.30;;
8540;SDS011;4308;51.294;6.590;2023-07-29T09:50:32;2.40;;;1.30;;
8540;SDS011;4308;51.294;6.590;2023-07-29T09:53:01;3.27;;;1.47;;
8540;SDS011;4308;51.294;6.590;2023-07-29T09:55:29;2.13;;;1.40;;
8540;SDS011;4308;51.294;6.590;2023-07-29T09:57:57;2.50;;;1.43;;
8540;SDS011;4308;51.294;6.590;2023-07-29T10:00:25;1.50;;;1.30;;
8540;SDS011;4308;51.294;6.590;2023-07-29T10:02:53;2.00;;;1.80;;
8540;SDS011;4308;51.294;6.590;2023-07-29T10:05:21;1.43;;;1.10;;
8540;SDS011;4308;51.294;6.590;2023-07-29T10:07:49;2.30;;;1.53;;
8540;SDS011;4308;51.294;6.590;2023-07-29T10:10:17;2.10;;;1.40;;
8540;SDS011;4308;51.294;6.590;2023-07-29T10:12:44;2.03;;;1.60;;
8540;SDS011;4308;51.294;6.590;2023-07-29T10:15:12;2.33;;;1.60;;
8540;SDS011;4308;51.294;6.590;2023-07-29T10:17:40;2.93;;;1.43;;
8540;SDS011;4308;51.294;6.590;2023-07-29T10:20:09;1.97;;;1.33;;
8540;SDS011;4308;51.294;6.590;2023-07-29T10:22:42;1.87;;;1.53;;
8540;SDS011;4308;51.294;6.590;2023-07-29T10:25:12;1.77;;;1.20;;
8540;SDS011;4308;51.294;6.590;2023-07-29T10:27:42;2.50;;;1.50;;
8540;SDS011;4308;51.294;6.590;2023-07-29T10:30:11;3.87;;;1.43;;
8540;SDS011;4308;51.294;6.590;2023-07-29T10:32:38;3.13;;;1.70;;
8540;SDS011;4308;51.294;6.590;2023-07-29T10:35:09;1.60;;;1.50;;
8540;SDS011;4308;51.294;6.590;2023-07-29T10:37:36;1.70;;;1.60;;
8540;SDS011;4308;51.294;6.590;2023-07-29T10:40:08;4.47;;;1.50;;
8540;SDS011;4308;51.294;6.590;2023-07-29T10:42:38;2.30;;;1.27;;
8540;SDS011;4308;51.294;6.590;2023-07-29T10:45:27;3.03;;;1.57;;
8540;SDS011;4308;51.294;6.590;2023-07-29T10:47:53;1.97;;;1.17;;
8540;SDS011;4308;51.294;6.590;2023-07-29T10:50:21;2.73;;;1.53;;
8540;SDS011;4308;51.294;6.590;2023-07-29T10:52:50;4.37;;;1.60;;
8540;SDS011;4308;51.294;6.590;2023-07-29T10:55:28;4.03;;;1.57;;
8540;SDS011;4308;51.294;6.590;2023-07-29T10:58:12;1.80;;;1.30;;
8540;SDS011;4308;51.294;6.590;2023-07-29T11:00:41;2.43;;;1.57;;
8540;SDS011;4308;51.294;6.590;2023-07-29T11:03:09;2.67;;;1.50;;
8540;SDS011;4308;51.294;6.590;2023-07-29T11:05:43;1.63;;;1.50;;
8540;SDS011;4308;51.294;6.590;2023-07-29T11:08:21;4.30;;;1.60;;
8540;SDS011;4308;51.294;6.590;2023-07-29T11:10:59;1.73;;;1.43;;
8540;SDS011;4308;51.294;6.590;2023-07-29T11:13:28;1.67;;;1.50;;
8540;SDS011;4308;51.294;6.590;2023-07-29T11:15:56;2.77;;;1.50;;
8540;SDS011;4308;51.294;6.590;2023-07-29T11:18:27;1.43;;;1.33;;
8540;SDS011;4308;51.294;6.590;2023-07-29T11:20:56;2.70;;;1.40;;
8540;SDS011;4308;51.294;6.590;2023-07-29T11:23:27;2.37;;;1.50;;
8540;SDS011;4308;51.294;6.590;2023-07-29T11:25:55;1.40;;;1.27;;
8540;SDS011;4308;51.294;6.590;2023-07-29T11:28:23;1.50;;;1.33;;
8540;SDS011;4308;51.294;6.590;2023-07-29T11:30:50;2.27;;;1.43;;
8540;SDS011;4308;51.294;6.590;2023-07-29T11:33:22;1.40;;;1.27;;
8540;SDS011;4308;51.294;6.590;2023-07-29T11:35:50;1.73;;;1.20;;
8540;SDS011;4308;51.294;6.590;2023-07-29T11:38:21;2.90;;;1.40;;
8540;SDS011;4308;51.294;6.590;2023-07-29T11:41:01;2.30;;;1.60;;
8540;SDS011;4308;51.294;6.590;2023-07-29T11:43:29;1.43;;;1.33;;
8540;SDS011;4308;51.294;6.590;2023-07-29T11:45:56;2.33;;;1.30;;
8540;SDS011;4308;51.294;6.590;2023-07-29T11:48:30;2.60;;;1.63;;
8540;SDS011;4308;51.294;6.590;2023-07-29T11:50:58;1.67;;;1.57;;
8540;SDS011;4308;51.294;6.590;2023-07-29T11:53:27;3.27;;;1.57;;
8540;SDS011;4308;51.294;6.590;2023-07-29T11:55:55;1.77;;;1.40;;
8540;SDS011;4308;51.294;6.590;2023-07-29T11:58:23;1.70;;;1.37;;
8540;SDS011;4308;51.294;6.590;2023-07-29T12:00:51;1.40;;;1.30;;
8540;SDS011;4308;51.294;6.590;2023-07-29T12:03:18;2.70;;;1.40;;
8540;SDS011;4308;51.294;6.590;2023-07-29T12:05:47;1.50;;;1.30;;
8540;SDS011;4308;51.294;6.590;2023-07-29T12:08:15;2.57;;;1.30;;
8540;SDS011;4308;51.294;6.590;2023-07-29T12:10:43;3.93;;;1.60;;
8540;SDS011;4308;51.294;6.590;2023-07-29T12:13:11;3.13;;;1.63;;
8540;SDS011;4308;51.294;6.590;2023-07-29T12:15:38;2.03;;;1.70;;
8540;SDS011;4308;51.294;6.590;2023-07-29T12:18:06;2.57;;;1.50;;
8540;SDS011;4308;51.294;6.590;2023-07-29T12:20:34;1.57;;;1.47;;
8540;SDS011;4308;51.294;6.590;2023-07-29T12:23:01;1.70;;;1.60;;
8540;SDS011;4308;51.294;6.590;2023-07-29T12:25:29;1.73;;;1.63;;
8540;SDS011;4308;51.294;6.590;2023-07-29T12:28:02;1.30;;;1.20;;
8540;SDS011;4308;51.294;6.590;2023-07-29T12:30:30;1.70;;;1.60;;
8540;SDS011;4308;51.294;6.590;2023-07-29T12:32:57;1.93;;;1.53;;
8540;SDS011;4308;51.294;6.590;2023-07-29T12:35:33;2.13;;;1.40;;
8540;SDS011;4308;51.294;6.590;2023-07-29T12:38:00;1.60;;;1.50;;
8540;SDS011;4308;51.294;6.590;2023-07-29T12:40:28;2.33;;;1.53;;
8540;SDS011;4308;51.294;6.590;2023-07-29T12:42:56;3.20;;;1.60;;
8540;SDS011;4308;51.294;6.590;2023-07-29T12:45:23;1.67;;;1.50;;
8540;SDS011;4308;51.294;6.590;2023-07-29T12:47:51;2.10;;;1.33;;
8540;SDS011;4308;51.294;6.590;2023-07-29T12:50:19;1.50;;;1.40;;
8540;SDS011;4308;51.294;6.590;2023-07-29T12:52:46;1.70;;;1.53;;
8540;SDS011;4308;51.294;6.590;2023-07-29T12:55:14;2.90;;;1.63;;
8540;SDS011;4308;51.294;6.590;2023-07-29T12:57:45;2.00;;;1.47;;
8540;SDS011;4308;51.294;6.590;2023-07-29T13:00:13;1.83;;;1.57;;
8540;SDS011;4308;51.294;6.590;2023-07-29T13:02:41;2.13;;;1.83;;
8540;SDS011;4308;51.294;6.590;2023-07-29T13:05:11;2.10;;;1.67;;
8540;SDS011;4308;51.294;6.590;2023-07-29T13:07:39;2.17;;;1.70;;
8540;SDS011;4308;51.294;6.590;2023-07-29T13:10:08;1.50;;;1.40;;
8540;SDS011;4308;51.294;6.590;2023-07-29T13:12:35;4.00;;;1.70;;
8540;SDS011;4308;51.294;6.590;2023-07-29T13:15:03;2.00;;;1.77;;
8540;SDS011;4308;51.294;6.590;2023-07-29T13:17:31;3.80;;;1.73;;
8540;SDS011;4308;51.294;6.590;2023-07-29T13:19:59;2.80;;;1.80;;
8540;SDS011;4308;51.294;6.590;2023-07-29T13:22:29;1.87;;;1.67;;
8540;SDS011;4308;51.294;6.590;2023-07-29T13:24:57;4.40;;;1.90;;
8540;SDS011;4308;51.294;6.590;2023-07-29T13:27:24;2.87;;;1.90;;
8540;SDS011;4308;51.294;6.590;2023-07-29T13:29:52;3.97;;;1.83;;
8540;SDS011;4308;51.294;6.590;2023-07-29T13:32:20;2.90;;;1.90;;
8540;SDS011;4308;51.294;6.590;2023-07-29T13:34:47;2.70;;;1.93;;
8540;SDS011;4308;51.294;6.590;2023-07-29T13:37:15;3.03;;;1.90;;
8540;SDS011;4308;51.294;6.590;2023-07-29T13:39:43;2.07;;;1.87;;
8540;SDS011;4308;51.294;6.590;2023-07-29T13:42:10;1.90;;;1.77;;
8540;SDS011;4308;51.294;6.590;2023-07-29T13:44:38;2.33;;;1.80;;
8540;SDS011;4308;51.294;6.590;2023-07-29T13:47:05;4.10;;;2.17;;
8540;SDS011;4308;51.294;6.590;2023-07-29T13:49:33;4.50;;;1.87;;
8540;SDS011;4308;51.294;6.590;2023-07-29T13:52:01;2.17;;;1.60;;
8540;SDS011;4308;51.294;6.590;2023-07-29T13:54:28;2.73;;;2.10;;
8540;SDS011;4308;51.294;6.590;2023-07-29T13:56:56;4.33;;;1.80;;
8540;SDS011;4308;51.294;6.590;2023-07-29T13:59:24;4.13;;;2.43;;
8540;SDS011;4308;51.294;6.590;2023-07-29T14:01:51;1.70;;;1.60;;
8540;SDS011;4308;51.294;6.590;2023-07-29T14:04:19;3.40;;;1.80;;
8540;SDS011;4308;51.294;6.590;2023-07-29T14:06:47;3.13;;;1.80;;
8540;SDS011;4308;51.294;6.590;2023-07-29T14:09:24;3.50;;;1.70;;
8540;SDS011;4308;51.294;6.590;2023-07-29T14:11:53;1.67;;;1.50;;
8540;SDS011;4308;51.294;6.590;2023-07-29T14:14:21;2.80;;;1.73;;
8540;SDS011;4308;51.294;6.590;2023-07-29T14:16:48;1.80;;;1.70;;
8540;SDS011;4308;51.294;6.590;2023-07-29T14:19:16;3.27;;;1.47;;
8540;SDS011;4308;51.294;6.590;2023-07-29T14:21:44;1.60;;;1.50;;
8540;SDS011;4308;51.294;6.590;2023-07-29T14:24:12;1.60;;;1.50;;
8540;SDS011;4308;51.294;6.590;2023-07-29T14:26:39;1.73;;;1.63;;
8540;SDS011;4308;51.294;6.590;2023-07-29T14:29:07;2.30;;;1.93;;
8540;SDS011;4308;51.294;6.590;2023-07-29T14:31:34;2.10;;;1.87;;
8540;SDS011;4308;51.294;6.590;2023-07-29T14:34:02;2.17;;;1.67;;
8540;SDS011;4308;51.294;6.590;2023-07-29T14:36:30;2.30;;;1.90;;
8540;SDS011;4308;51.294;6.590;2023-07-29T14:38:57;2.50;;;1.80;;
8540;SDS011;4308;51.294;6.590;2023-07-29T14:41:25;2.00;;;1.80;;
8540;SDS011;4308;51.294;6.590;2023-07-29T14:43:53;1.77;;;1.67;;
8540;SDS011;4308;51.294;6.590;2023-07-29T14:46:20;1.97;;;1.57;;
8540;SDS011;4308;51.294;6.590;2023-07-29T14:48:48;2.73;;;1.77;;
8540;SDS011;4308;51.294;6.590;2023-07-29T14:51:15;2.20;;;1.93;;
8540;SDS011;4308;51.294;6.590;2023-07-29T14:53:43;2.67;;;1.70;;
8540;SDS011;4308;51.294;6.590;2023-07-29T14:56:10;2.37;;;1.87;;
8540;SDS011;4308;51.294;6.590;2023-07-29T14:58:38;2.23;;;2.03;;
8540;SDS011;4308;51.294;6.590;2023-07-29T15:01:06;2.23;;;1.90;;
8540;SDS011;4308;51.294;6.590;2023-07-29T15:03:34;5.03;;;1.80;;
8540;SDS011;4308;51.294;6.590;2023-07-29T15:06:01;1.90;;;1.80;;
8540;SDS011;4308;51.294;6.590;2023-07-29T15:08:29;2.73;;;1.70;;
8540;SDS011;4308;51.294;6.590;2023-07-29T15:10:56;1.80;;;1.70;;
8540;SDS011;4308;51.294;6.590;2023-07-29T15:13:24;2.03;;;1.43;;
8540;SDS011;4308;51.294;6.590;2023-07-29T15:15:52;1.50;;;1.40;;
8540;SDS011;4308;51.294;6.590;2023-07-29T15:18:19;1.43;;;1.30;;
8540;SDS011;4308;51.294;6.590;2023-07-29T15:20:47;1.77;;;1.60;;
8540;SDS011;4308;51.294;6.590;2023-07-29T15:23:14;1.97;;;1.43;;
8540;SDS011;4308;51.294;6.590;2023-07-29T15:25:42;1.43;;;1.33;;
8540;SDS011;4308;51.294;6.590;2023-07-29T15:28:09;2.77;;;1.33;;
8540;SDS011;4308;51.294;6.590;2023-07-29T15:30:37;1.40;;;1.30;;
8540;SDS011;4308;51.294;6.590;2023-07-29T15:33:08;1.53;;;1.43;;